FW3675 Weather Reports


Display with metric or nautical units.
time (UTC)temp
F
wind
direction
speed
MPH
gust
MPH
rain 1hr
in
rain 24hr
in
rain mn
in
humidity
%
barometer
mb
20220522180047 52 96 7.0 11.0 0.00 0.00 0.00 47 1020.7
20220522174544 50 241 4.0 9.0 0.00 0.00 0.00 50 1021.1
20220522173045 51 121 4.0 14.0 0.00 0.00 0.00 47 1021.3
20220522171557 50 193 4.0 14.0 0.00 0.00 0.00 48 1021.6
20220522170037 52 182 10.0 16.0 0.00 0.00 0.00 45 1021.7
20220522164534 50 28 3.0 13.0 0.00 0.06 0.00 47 1022.1
20220522163031 52 170 7.0 14.0 0.00 0.06 0.00 48 1022.5
20220522161527 51 264 4.0 10.0 0.00 0.06 0.00 50 1023.1
20220522160024 51 356 5.0 9.0 0.00 0.06 0.00 52 1023.3
20220522154522 51 6 4.0 11.0 0.00 0.17 0.00 52 1023.7
20220522153021 52 352 6.0 12.0 0.00 0.17 0.00 52 1023.8
20220522151533 52 16 3.0 8.0 0.00 0.17 0.00 53 1024.3
20220522150019 49 49 2.0 5.0 0.00 0.17 0.00 57 1024.8
20220522144509 46 86 2.0 6.0 0.00 0.28 0.00 61 1024.9
20220522143007 48 89 2.0 5.0 0.00 0.28 0.00 58 1025.0
20220522141514 46 67 4.0 7.0 0.00 0.28 0.00 61 1025.2
20220522140059 44 105 2.0 5.0 0.00 0.28 0.00 65 1025.3
20220522134557 44 60 4.0 6.0 0.00 0.39 0.00 67 1025.3
20220522133057 41 79 2.0 5.0 0.00 0.39 0.00 71 1025.4
20220522131551 41 96 3.0 5.0 0.00 0.39 0.00 73 1025.5
20220522130049 38 117 1.0 4.0 0.00 0.39 0.00 76 1025.3
20220522124542 37 112 2.0 5.0 0.00 0.40 0.00 82 1025.2
20220522123040 38 187 3.0 6.0 0.00 0.40 0.00 74 1025.3
20220522121533 37 276 4.0 7.0 0.00 0.40 0.00 73 1024.9
20220522120041 37 302 3.0 5.0 0.00 0.40 0.00 73 1024.9
20220522114528 37 331 1.0 2.0 0.00 0.41 0.00 74 1024.9
20220522113028 36 286 3.0 5.0 0.00 0.41 0.00 77 1025.0
20220522111526 35 255 2.0 4.0 0.00 0.41 0.00 80 1025.2
20220522110025 34 269 1.0 4.0 0.00 0.41 0.00 86 1025.2
20220522104525 35 255 2.0 5.0 0.00 0.41 0.00 87 1024.6
20220522103021 36 178 2.0 3.0 0.00 0.41 0.00 84 1024.9
20220522101523 36 206 2.0 3.0 0.00 0.41 0.00 82 1024.6
20220522100022 37 215 1.0 4.0 0.00 0.41 0.00 79 1024.5
20220522094535 38 234 2.0 4.0 0.00 0.41 0.00 80 1024.5
20220522093018 38 168 3.0 5.0 0.00 0.41 0.00 79 1024.6
20220522091512 39 192 3.0 5.0 0.00 0.41 0.00 77 1024.5
20220522090007 39 171 5.0 6.0 0.00 0.41 0.00 73 1024.8
20220522084505 40 173 2.0 4.0 0.00 0.42 0.00 71 1024.8
20220522083004 40 178 2.0 8.0 0.00 0.42 0.00 71 1025.2
20220522081502 40 222 4.0 10.0 0.00 0.42 0.00 72 1025.0
20220522080103 40 168 5.0 9.0 0.00 0.42 0.00 75 1025.4
20220522074559 40 174 7.0 11.0 0.00 0.42 0.00 76 1025.5
20220522073056 40 174 7.0 11.0 0.00 0.42 0.00 74 1025.6
20220522071553 41 186 5.0 11.0 0.00 0.42 0.00 66 1025.9
20220522070053 42 230 5.0 9.0 0.00 0.42 0.00 64 1025.9
20220522064548 42 218 4.0 9.0 0.00 0.42 0.00 64 1026.1
20220522063046 41 197 3.0 8.0 0.00 0.42 0.00 68 1026.2
20220522061551 42 250 5.0 14.0 0.00 0.42 0.00 67 1026.2
20220522060046 42 255 9.0 15.0 0.00 0.42 0.00 67 1026.4
20220522054540 42 257 6.0 11.0 0.00 0.43 0.42 67 1026.3
20220522053050 41 174 4.0 6.0 0.00 0.43 0.42 73 1026.4
20220522051538 41 204 5.0 7.0 0.00 0.43 0.42 73 1026.8
20220522050037 42 223 6.0 8.0 0.00 0.43 0.42 73 1027.0
20220522044537 42 222 4.0 6.0 0.00 0.43 0.42 71 1027.3
20220522043039 42 185 5.0 9.0 0.00 0.43 0.42 70 1027.1
20220522041537 42 159 5.0 9.0 0.00 0.43 0.42 70 1027.1
20220522040034 42 173 4.0 10.0 0.00 0.43 0.42 69 1027.1
20220522034541 42 221 4.0 7.0 0.00 0.43 0.42 68 1027.1
20220522033034 43 189 5.0 8.0 0.00 0.43 0.42 68 1026.9
20220522031534 43 193 5.0 8.0 0.00 0.43 0.42 68 1026.8
20220522030038 43 187 5.0 7.0 0.00 0.43 0.42 67 1026.7
20220522024532 43 190 4.0 9.0 0.00 0.44 0.42 66 1026.5
20220522023032 43 218 4.0 8.0 0.00 0.44 0.42 66 1026.3
20220522021534 44 225 7.0 12.0 0.00 0.44 0.42 63 1026.1
20220522020031 44 193 5.0 12.0 0.00 0.44 0.42 63 1026.3
20220522014534 44 255 5.0 13.0 0.00 0.44 0.42 61 1026.2
20220522013030 44 237 9.0 14.0 0.00 0.44 0.42 58 1025.8
20220522011537 45 237 7.0 12.0 0.00 0.44 0.42 58 1026.1
20220522010028 45 241 8.0 13.0 0.00 0.44 0.42 57 1025.8
20220522004528 45 286 10.0 16.0 0.00 0.45 0.42 55 1025.8
20220522003034 45 271 10.0 17.0 0.00 0.45 0.42 54 1025.7
20220522001532 45 253 10.0 16.0 0.00 0.45 0.42 53 1025.9
20220522000026 46 222 8.0 14.0 0.00 0.45 0.42 52 1025.6
20220521234525 46 178 10.0 17.0 0.00 0.47 0.42 54 1025.9
20220521233025 47 173 9.0 17.0 0.00 0.47 0.42 56 1025.8
20220521231524 47 198 9.0 14.0 0.00 0.47 0.42 53 1025.7
20220521230048 48 234 6.0 14.0 0.00 0.47 0.42 53 1025.8
20220521224523 47 214 3.0 13.0 0.00 0.48 0.42 51 1025.7
20220521223016 47 269 3.0 14.0 0.00 0.48 0.42 52 1025.8
20220521221514 46 168 9.0 15.0 0.00 0.48 0.42 54 1025.8
20220521220007 46 177 7.0 16.0 0.00 0.48 0.42 56 1025.9
20220521214503 45 314 5.0 15.0 0.00 0.50 0.42 56 1026.1
20220521213059 44 148 6.0 17.0 0.00 0.50 0.42 58 1026.2
20220521211559 44 221 10.0 17.0 0.00 0.50 0.42 54 1026.1
20220521210055 43 236 7.0 16.0 0.00 0.50 0.42 61 1026.4
20220521204554 43 252 8.0 16.0 0.00 0.56 0.42 61 1026.3
20220521203057 43 253 8.0 17.0 0.00 0.56 0.42 62 1026.5
20220521201600 43 231 6.0 16.0 0.00 0.56 0.42 64 1026.4
20220521200050 43 162 9.0 16.0 0.00 0.56 0.42 68 1026.5
20220521194549 41 238 4.0 17.0 0.00 0.56 0.42 63 1026.7
20220521193048 41 228 5.0 22.0 0.00 0.56 0.42 62 1026.8
20220521191548 42 196 4.0 15.0 0.00 0.56 0.42 61 1026.8
20220521190045 41 187 6.0 16.0 0.00 0.56 0.42 60 1026.9
20220521184542 40 167 7.0 16.0 0.00 0.69 0.42 63 1027.1
20220521183041 40 248 7.0 13.0 0.00 0.69 0.42 65 1027.0
20220521181554 39 283 7.0 14.0 0.00 0.69 0.42 65 1027.2